Time;durP1;ratioP1;P1;durP2;ratioP2;P2;SDS_P1;SDS_P2;PMS_P1;PMS_P2;Temp;Humidity;BMP_temperature;BMP_pressure;BME280_temperature;BME280_humidity;BME280_pressure;Samples;Min_cycle;Max_cycle;Signal;HPM_P1;HPM_P2
2022/01/17 00:01:12;;;;;;;8.48;5.82;;;;;;;;;;5072397;28;20048;-74
2022/01/17 00:03:40;;;;;;;11.57;6.22;;;;;;;;;;5054453;28;20053;-73
2022/01/17 00:06:09;;;;;;;7.22;5.60;;;;;;;;;;5072580;28;20045;-75
2022/01/17 00:08:42;;;;;;;8.23;5.75;;;;;;;;;;5072346;28;20049;-76
2022/01/17 00:11:11;;;;;;;8.20;5.78;;;;;;;;;;5071991;28;20048;-75
2022/01/17 00:13:40;;;;;;;9.90;5.22;;;;;;;;;;5072125;28;20040;-72
2022/01/17 00:16:14;;;;;;;8.68;5.68;;;;;;;;;;5072594;28;20048;-72
2022/01/17 00:21:13;;;;;;;6.95;5.18;;;;;;;;;;5072453;28;20049;-73
2022/01/17 00:23:41;;;;;;;8.20;4.97;;;;;;;;;;5072212;28;20048;-73
2022/01/17 00:26:09;;;;;;;10.13;5.20;;;;;;;;;;5054570;28;20397;-73
2022/01/17 00:28:37;;;;;;;7.38;4.78;;;;;;;;;;5054685;28;20036;-72
2022/01/17 00:31:04;;;;;;;8.40;5.13;;;;;;;;;;5072287;28;20044;-72
2022/01/17 00:33:33;;;;;;;7.13;5.30;;;;;;;;;;5072043;28;20147;-73
2022/01/17 00:36:01;;;;;;;8.35;4.97;;;;;;;;;;5072489;28;20041;-72
2022/01/17 00:38:29;;;;;;;10.60;4.88;;;;;;;;;;5072076;28;20480;-72
2022/01/17 00:40:57;;;;;;;8.07;4.88;;;;;;;;;;5072388;28;20040;-72
2022/01/17 00:43:25;;;;;;;7.35;4.70;;;;;;;;;;5054338;28;20139;-72
2022/01/17 00:45:53;;;;;;;9.80;4.45;;;;;;;;;;5072086;28;20047;-72
2022/01/17 00:48:20;;;;;;;8.57;4.85;;;;;;;;;;5072008;28;20047;-72
2022/01/17 00:50:48;;;;;;;8.52;5.03;;;;;;;;;;5072124;28;20119;-72
2022/01/17 00:53:15;;;;;;;5.90;4.28;;;;;;;;;;5071774;28;20032;-73
2022/01/17 00:55:43;;;;;;;8.30;4.63;;;;;;;;;;5072304;28;20037;-72
2022/01/17 00:58:11;;;;;;;5.75;4.15;;;;;;;;;;5074126;28;20090;-73
2022/01/17 01:00:40;;;;;;;7.00;4.45;;;;;;;;;;5075709;28;20040;-73
2022/01/17 01:03:09;;;;;;;6.82;4.35;;;;;;;;;;5075873;28;20098;-72
2022/01/17 01:05:37;;;;;;;5.38;4.03;;;;;;;;;;5075879;28;20075;-74
2022/01/17 01:08:04;;;;;;;7.07;4.00;;;;;;;;;;5057896;28;20102;-72
2022/01/17 01:10:32;;;;;;;5.82;3.97;;;;;;;;;;5075452;28;20039;-73
2022/01/17 01:13:00;;;;;;;6.22;4.28;;;;;;;;;;5075563;28;20037;-72
2022/01/17 01:29:27;;;;;;;5.95;3.88;;;;;;;;;;5075503;28;20036;-72
2022/01/17 01:32:04;;;;;;;8.82;3.70;;;;;;;;;;5075659;28;20388;-73
2022/01/17 01:34:36;;;;;;;7.45;3.55;;;;;;;;;;5075124;28;20048;-73
2022/01/17 01:37:04;;;;;;;7.82;3.85;;;;;;;;;;5075198;28;20047;-73
2022/01/17 01:39:33;;;;;;;3.85;3.28;;;;;;;;;;5057537;28;20044;-73
2022/01/17 01:42:02;;;;;;;6.50;3.45;;;;;;;;;;5075263;28;20045;-72
2022/01/17 01:44:31;;;;;;;6.25;3.67;;;;;;;;;;5075329;28;20132;-74
2022/01/17 01:46:58;;;;;;;6.90;3.42;;;;;;;;;;5074718;28;20055;-72
2022/01/17 01:49:26;;;;;;;5.00;3.33;;;;;;;;;;5075251;28;20036;-72
2022/01/17 01:51:54;;;;;;;4.90;3.22;;;;;;;;;;5075118;28;20495;-72
2022/01/17 01:54:21;;;;;;;6.80;3.03;;;;;;;;;;5075124;28;20036;-74
2022/01/17 01:56:50;;;;;;;7.80;3.20;;;;;;;;;;5075150;28;20515;-72
2022/01/17 01:59:20;;;;;;;6.72;3.40;;;;;;;;;;5074402;28;20514;-73
2022/01/17 02:01:48;;;;;;;4.85;2.70;;;;;;;;;;5074912;28;20052;-72
2022/01/17 02:04:16;;;;;;;4.15;3.22;;;;;;;;;;5074957;28;20491;-73
2022/01/17 02:06:44;;;;;;;4.15;2.90;;;;;;;;;;5074582;28;20518;-72
2022/01/17 02:09:11;;;;;;;6.10;3.35;;;;;;;;;;5074787;28;20076;-72
2022/01/17 02:11:39;;;;;;;5.88;3.13;;;;;;;;;;5074762;28;20360;-72
2022/01/17 02:14:07;;;;;;;7.10;2.97;;;;;;;;;;5074059;28;20040;-72
2022/01/17 02:16:37;;;;;;;5.30;3.20;;;;;;;;;;5074234;28;20048;-72
2022/01/17 02:19:05;;;;;;;4.50;2.92;;;;;;;;;;5074041;28;20040;-72
2022/01/17 02:21:44;;;;;;;3.88;2.50;;;;;;;;;;5073562;28;20060;-72
2022/01/17 02:24:14;;;;;;;5.55;2.97;;;;;;;;;;5056607;28;20043;-73
2022/01/17 02:26:41;;;;;;;6.55;2.67;;;;;;;;;;5056822;28;20373;-72
2022/01/17 02:29:09;;;;;;;5.28;2.90;;;;;;;;;;5074059;28;20047;-72
2022/01/17 02:31:38;;;;;;;4.13;2.50;;;;;;;;;;5070979;28;20037;-72
2022/01/17 02:34:05;;;;;;;3.45;2.60;;;;;;;;;;5074108;28;20047;-72
2022/01/17 02:36:35;;;;;;;4.22;2.65;;;;;;;;;;5074256;28;20041;-72
2022/01/17 02:39:04;;;;;;;4.30;2.65;;;;;;;;;;5065774;28;20040;-72
2022/01/17 02:41:36;;;;;;;6.63;2.90;;;;;;;;;;5074085;28;20063;-72
2022/01/17 02:44:03;;;;;;;6.50;2.60;;;;;;;;;;5055856;28;20063;-73
2022/01/17 02:46:31;;;;;;;4.03;2.10;;;;;;;;;;5055942;28;20041;-72
2022/01/17 02:49:00;;;;;;;4.18;2.40;;;;;;;;;;5073999;28;20040;-72
2022/01/17 02:51:28;;;;;;;4.55;2.63;;;;;;;;;;5074242;28;20033;-73
2022/01/17 02:53:55;;;;;;;5.78;2.70;;;;;;;;;;5074341;28;20438;-72
2022/01/17 02:56:23;;;;;;;4.05;2.65;;;;;;;;;;5055834;28;20056;-72
2022/01/17 02:58:51;;;;;;;3.40;2.53;;;;;;;;;;5073506;28;20041;-72
2022/01/17 03:01:20;;;;;;;7.03;2.67;;;;;;;;;;5055761;28;20059;-72
2022/01/17 03:03:48;;;;;;;7.80;2.65;;;;;;;;;;5038947;28;20412;-73
2022/01/17 03:06:16;;;;;;;3.55;2.50;;;;;;;;;;5073823;28;20495;-72
2022/01/17 03:08:44;;;;;;;6.03;2.88;;;;;;;;;;5073776;28;20444;-72
2022/01/17 03:11:13;;;;;;;6.82;2.70;;;;;;;;;;5055063;28;20050;-72
2022/01/17 03:13:41;;;;;;;3.67;2.47;;;;;;;;;;5073780;28;20043;-72
2022/01/17 03:16:13;;;;;;;5.15;2.40;;;;;;;;;;5073598;28;20070;-73
2022/01/17 03:18:43;;;;;;;4.75;2.53;;;;;;;;;;5073119;28;20118;-73
2022/01/17 03:21:11;;;;;;;4.13;2.50;;;;;;;;;;5072715;28;20049;-73
2022/01/17 03:23:39;;;;;;;4.90;2.58;;;;;;;;;;5072853;28;20055;-72
2022/01/17 03:26:07;;;;;;;4.78;2.38;;;;;;;;;;5073384;28;20055;-72
2022/01/17 03:28:34;;;;;;;7.28;2.60;;;;;;;;;;5055459;28;20052;-73
2022/01/17 03:31:02;;;;;;;4.00;2.50;;;;;;;;;;5073115;28;20119;-72
2022/01/17 03:33:30;;;;;;;5.18;2.63;;;;;;;;;;5055560;28;20036;-72
2022/01/17 03:35:58;;;;;;;5.57;2.72;;;;;;;;;;5055454;28;20040;-72
2022/01/17 03:38:29;;;;;;;5.38;2.53;;;;;;;;;;5072938;28;20044;-73
2022/01/17 03:40:58;;;;;;;4.47;2.70;;;;;;;;;;5073077;28;20048;-73
2022/01/17 03:43:27;;;;;;;4.82;2.35;;;;;;;;;;5055287;28;20052;-73
2022/01/17 03:45:57;;;;;;;4.47;2.80;;;;;;;;;;5072601;28;20044;-72
2022/01/17 03:48:26;;;;;;;4.22;2.60;;;;;;;;;;5073202;28;20079;-72
2022/01/17 03:50:55;;;;;;;4.28;2.75;;;;;;;;;;5072791;28;20498;-72
2022/01/17 03:53:23;;;;;;;3.30;2.20;;;;;;;;;;5073298;28;20036;-72
2022/01/17 03:55:52;;;;;;;4.40;2.53;;;;;;;;;;5072671;28;20119;-72
2022/01/17 03:58:26;;;;;;;5.90;2.90;;;;;;;;;;5072432;28;20491;-72
2022/01/17 04:00:55;;;;;;;4.70;2.70;;;;;;;;;;5072789;28;20055;-72
2022/01/17 04:03:23;;;;;;;4.82;2.75;;;;;;;;;;5054870;28;20048;-72
2022/01/17 04:05:52;;;;;;;7.50;2.97;;;;;;;;;;5072899;28;20037;-72
2022/01/17 04:08:19;;;;;;;3.80;2.72;;;;;;;;;;5055298;28;20048;-72
2022/01/17 04:10:47;;;;;;;6.00;2.90;;;;;;;;;;5072561;28;20060;-72
2022/01/17 04:13:14;;;;;;;4.03;3.25;;;;;;;;;;5055394;28;20041;-72
2022/01/17 04:15:42;;;;;;;7.47;3.05;;;;;;;;;;5054386;28;20429;-74
2022/01/17 04:18:10;;;;;;;5.40;3.28;;;;;;;;;;5054720;28;20044;-73
2022/01/17 04:20:38;;;;;;;5.00;2.97;;;;;;;;;;5072528;28;20383;-73
2022/01/17 04:23:07;;;;;;;6.22;3.30;;;;;;;;;;5054366;28;20041;-73
2022/01/17 04:25:36;;;;;;;5.70;3.38;;;;;;;;;;5054620;28;20055;-73
2022/01/17 04:28:05;;;;;;;5.65;3.00;;;;;;;;;;5037950;28;20400;-72
2022/01/17 04:30:34;;;;;;;4.88;3.17;;;;;;;;;;5072521;28;20132;-73
2022/01/17 04:33:01;;;;;;;8.55;3.60;;;;;;;;;;5075094;28;20120;-73
2022/01/17 04:35:30;;;;;;;5.57;3.30;;;;;;;;;;5058360;28;20041;-73
2022/01/17 04:38:01;;;;;;;7.38;3.10;;;;;;;;;;5076340;28;20041;-72
2022/01/17 04:40:36;;;;;;;6.40;3.25;;;;;;;;;;5075934;28;20507;-73
2022/01/17 04:43:12;;;;;;;4.78;3.30;;;;;;;;;;5076259;28;20041;-73
2022/01/17 04:45:40;;;;;;;5.45;3.17;;;;;;;;;;5058586;28;20036;-73
2022/01/17 04:48:08;;;;;;;5.38;3.35;;;;;;;;;;5076124;28;20488;-74
2022/01/17 04:50:35;;;;;;;6.82;3.67;;;;;;;;;;5076499;28;20360;-72
2022/01/17 04:53:03;;;;;;;5.90;3.33;;;;;;;;;;5076236;28;20040;-72
2022/01/17 04:55:31;;;;;;;3.55;3.20;;;;;;;;;;5075943;28;20043;-72
2022/01/17 04:57:58;;;;;;;7.32;3.63;;;;;;;;;;5075940;28;20357;-72
2022/01/17 05:00:27;;;;;;;5.25;3.65;;;;;;;;;;5075814;28;20388;-72
2022/01/17 05:02:55;;;;;;;4.25;3.35;;;;;;;;;;5075885;28;20044;-73
2022/01/17 05:05:23;;;;;;;7.72;3.33;;;;;;;;;;5076133;28;20043;-73
2022/01/17 05:07:50;;;;;;;6.93;3.53;;;;;;;;;;5075938;28;20040;-73
2022/01/17 05:10:18;;;;;;;3.92;3.05;;;;;;;;;;5075628;28;20044;-72
2022/01/17 05:12:49;;;;;;;7.93;3.90;;;;;;;;;;5075958;28;20050;-72
2022/01/17 05:16:03;;;;;;;7.38;4.50;;;;;;;;;;5057484;28;20033;-74
2022/01/17 05:20:39;;;;;;;7.47;3.60;;;;;;;;;;5075840;28;20053;-72
2022/01/17 05:23:06;;;;;;;7.93;3.72;;;;;;;;;;5040878;28;20098;-73
2022/01/17 05:25:34;;;;;;;7.03;3.70;;;;;;;;;;5075641;28;20130;-73
2022/01/17 05:28:04;;;;;;;5.03;3.40;;;;;;;;;;5067520;28;20383;-72
2022/01/17 05:30:31;;;;;;;5.50;3.47;;;;;;;;;;5076321;28;20360;-73
2022/01/17 05:32:59;;;;;;;7.00;4.00;;;;;;;;;;5075552;28;20036;-72
2022/01/17 05:35:27;;;;;;;14.13;4.30;;;;;;;;;;5040597;28;20044;-73
2022/01/17 05:37:54;;;;;;;10.10;3.75;;;;;;;;;;5075278;28;20075;-72
2022/01/17 05:40:22;;;;;;;9.15;3.88;;;;;;;;;;5075275;28;20048;-72
2022/01/17 05:42:50;;;;;;;9.63;3.80;;;;;;;;;;5074890;28;20071;-72
2022/01/17 05:45:17;;;;;;;16.20;3.55;;;;;;;;;;5075045;28;20045;-72
2022/01/17 05:47:45;;;;;;;13.20;3.95;;;;;;;;;;5075054;28;20041;-72
2022/01/17 05:50:14;;;;;;;7.90;3.83;;;;;;;;;;5075372;28;20048;-73
2022/01/17 05:52:42;;;;;;;8.10;3.70;;;;;;;;;;5075478;28;20314;-72
2022/01/17 05:55:11;;;;;;;8.07;4.20;;;;;;;;;;5057060;28;20048;-72
2022/01/17 05:57:39;;;;;;;8.82;3.75;;;;;;;;;;5056920;28;20047;-73
2022/01/17 06:00:09;;;;;;;7.32;3.97;;;;;;;;;;5056644;28;20051;-70
2022/01/17 06:02:36;;;;;;;7.30;3.88;;;;;;;;;;5042708;28;20049;-71
2022/01/17 06:05:04;;;;;;;11.25;5.15;;;;;;;;;;5054911;28;20506;-72
2022/01/17 06:07:32;;;;;;;7.15;4.47;;;;;;;;;;5055012;28;20051;-71
2022/01/17 06:09:59;;;;;;;12.20;4.90;;;;;;;;;;5054335;28;20206;-70
2022/01/17 06:12:26;;;;;;;13.15;5.10;;;;;;;;;;5036786;28;20373;-71
2022/01/17 06:14:54;;;;;;;16.48;5.10;;;;;;;;;;5054819;28;20056;-71
2022/01/17 06:17:22;;;;;;;18.38;5.40;;;;;;;;;;5069267;28;20049;-72
2022/01/17 06:19:49;;;;;;;14.15;5.50;;;;;;;;;;5074149;28;20224;-71
2022/01/17 06:22:16;;;;;;;16.42;5.43;;;;;;;;;;5073607;28;20032;-71
2022/01/17 06:24:44;;;;;;;13.55;6.75;;;;;;;;;;5073940;28;20045;-71
2022/01/17 06:27:12;;;;;;;8.63;4.88;;;;;;;;;;5073647;28;20044;-71
2022/01/17 06:29:39;;;;;;;7.68;4.53;;;;;;;;;;5073302;28;20495;-72
2022/01/17 06:32:07;;;;;;;9.73;4.45;;;;;;;;;;5073263;28;20052;-71
2022/01/17 06:34:52;;;;;;;11.30;4.50;;;;;;;;;;5073845;28;20169;-71
2022/01/17 06:37:20;;;;;;;10.80;4.53;;;;;;;;;;5073896;28;20036;-71
2022/01/17 06:39:53;;;;;;;6.63;4.15;;;;;;;;;;5073340;28;20110;-72
2022/01/17 06:42:21;;;;;;;9.02;4.28;;;;;;;;;;5072308;28;20041;-72
2022/01/17 06:44:51;;;;;;;13.90;5.32;;;;;;;;;;5073303;28;20094;-72
2022/01/17 06:47:18;;;;;;;7.75;4.75;;;;;;;;;;5055949;28;20040;-72
2022/01/17 06:49:46;;;;;;;9.98;5.15;;;;;;;;;;5073955;28;20110;-71
2022/01/17 06:52:13;;;;;;;10.68;4.50;;;;;;;;;;5073618;28;20036;-72
2022/01/17 06:54:41;;;;;;;13.10;5.00;;;;;;;;;;5072188;28;20041;-71
2022/01/17 06:57:09;;;;;;;31.92;11.18;;;;;;;;;;5073744;28;20044;-71
2022/01/17 06:59:36;;;;;;;18.08;9.45;;;;;;;;;;5073291;28;20045;-74
2022/01/17 07:02:04;;;;;;;14.52;8.02;;;;;;;;;;5073489;28;20040;-73
2022/01/17 07:04:32;;;;;;;16.10;7.15;;;;;;;;;;5073266;28;20068;-72
2022/01/17 07:07:00;;;;;;;9.77;6.40;;;;;;;;;;5073632;28;20049;-72
2022/01/17 07:09:30;;;;;;;11.50;6.03;;;;;;;;;;5072821;28;20412;-73
2022/01/17 07:11:59;;;;;;;13.55;5.68;;;;;;;;;;5072634;28;20044;-72
2022/01/17 07:14:27;;;;;;;14.40;6.15;;;;;;;;;;5073170;28;20119;-73
2022/01/17 07:16:55;;;;;;;13.20;4.95;;;;;;;;;;5072606;28;20044;-74
2022/01/17 07:19:23;;;;;;;11.38;4.65;;;;;;;;;;5072964;28;20044;-72
2022/01/17 07:21:51;;;;;;;9.38;5.15;;;;;;;;;;5073077;28;20037;-71
2022/01/17 07:24:37;;;;;;;11.40;5.93;;;;;;;;;;5072627;28;20037;-70
2022/01/17 07:27:05;;;;;;;10.52;5.53;;;;;;;;;;5072765;28;20043;-70
2022/01/17 07:29:33;;;;;;;18.40;6.45;;;;;;;;;;5072539;28;20045;-70
2022/01/17 07:32:00;;;;;;;11.40;6.40;;;;;;;;;;5072447;28;20052;-71
2022/01/17 07:34:28;;;;;;;19.90;6.90;;;;;;;;;;5072587;28;20041;-71
2022/01/17 07:36:55;;;;;;;12.65;7.05;;;;;;;;;;5072826;28;20036;-71
2022/01/17 07:39:23;;;;;;;18.75;7.53;;;;;;;;;;5072597;28;20226;-71
2022/01/17 07:41:51;;;;;;;18.25;7.90;;;;;;;;;;5072736;28;20087;-71
2022/01/17 07:44:23;;;;;;;11.90;7.35;;;;;;;;;;5054578;28;20052;-71
2022/01/17 07:46:56;;;;;;;16.80;8.48;;;;;;;;;;5072368;28;20072;-71
2022/01/17 07:49:25;;;;;;;24.58;11.63;;;;;;;;;;5072272;28;20102;-71
2022/01/17 07:51:59;;;;;;;23.92;11.48;;;;;;;;;;5072258;28;20056;-71
2022/01/17 07:54:28;;;;;;;15.90;8.10;;;;;;;;;;5072465;28;20511;-72
2022/01/17 07:56:57;;;;;;;17.65;6.93;;;;;;;;;;5054567;28;20128;-71
2022/01/17 07:59:24;;;;;;;19.30;7.47;;;;;;;;;;5072130;28;20058;-72
2022/01/17 08:01:52;;;;;;;14.82;7.80;;;;;;;;;;5072517;28;20046;-72
2022/01/17 08:04:19;;;;;;;13.25;8.43;;;;;;;;;;5072546;28;20049;-71
2022/01/17 08:06:49;;;;;;;17.05;9.45;;;;;;;;;;5072274;28;20496;-71
2022/01/17 08:09:29;;;;;;;16.17;9.38;;;;;;;;;;5054697;28;20230;-71
2022/01/17 08:12:03;;;;;;;13.60;7.97;;;;;;;;;;5072063;28;20040;-72
2022/01/17 08:14:30;;;;;;;19.25;7.93;;;;;;;;;;5072661;28;20115;-72
2022/01/17 08:16:58;;;;;;;14.77;8.20;;;;;;;;;;5072154;28;20044;-72
2022/01/17 08:19:26;;;;;;;24.95;8.20;;;;;;;;;;5054183;28;20040;-72
2022/01/17 08:22:03;;;;;;;15.82;8.60;;;;;;;;;;5072344;28;20048;-71
2022/01/17 08:24:31;;;;;;;20.38;9.18;;;;;;;;;;5072042;28;20048;-72
2022/01/17 08:26:59;;;;;;;17.10;9.27;;;;;;;;;;5072050;28;20044;-73
2022/01/17 08:29:28;;;;;;;24.08;12.13;;;;;;;;;;5072197;28;20037;-73
2022/01/17 08:31:56;;;;;;;21.45;12.50;;;;;;;;;;5072197;28;20040;-72
2022/01/17 08:34:23;;;;;;;25.27;12.40;;;;;;;;;;5072271;28;20050;-73
2022/01/17 08:36:53;;;;;;;19.30;12.20;;;;;;;;;;5072383;28;20116;-72
2022/01/17 08:39:23;;;;;;;16.65;11.02;;;;;;;;;;5072103;28;20070;-72
2022/01/17 08:41:52;;;;;;;16.77;10.10;;;;;;;;;;5054299;28;20461;-73
2022/01/17 08:44:22;;;;;;;16.90;10.30;;;;;;;;;;5072108;28;20044;-73
2022/01/17 08:46:50;;;;;;;17.48;9.63;;;;;;;;;;5072088;28;20052;-72
2022/01/17 08:49:19;;;;;;;13.77;8.65;;;;;;;;;;5072138;28;20422;-73
2022/01/17 08:51:47;;;;;;;12.38;7.90;;;;;;;;;;5071986;28;20067;-72
2022/01/17 08:54:14;;;;;;;15.32;7.47;;;;;;;;;;5072046;28;20040;-72
2022/01/17 08:56:42;;;;;;;15.27;7.18;;;;;;;;;;5071815;28;20352;-72
2022/01/17 08:59:11;;;;;;;9.52;5.90;;;;;;;;;;5071556;28;20120;-72
2022/01/17 09:01:38;;;;;;;7.05;4.70;;;;;;;;;;5069435;28;20044;-72
2022/01/17 09:04:07;;;;;;;8.88;3.92;;;;;;;;;;5051836;28;20079;-72
2022/01/17 09:06:34;;;;;;;6.20;3.63;;;;;;;;;;5051847;28;20044;-72
2022/01/17 09:09:02;;;;;;;4.40;3.03;;;;;;;;;;5051522;28;20492;-71
2022/01/17 09:11:29;;;;;;;5.35;3.33;;;;;;;;;;5051203;28;20037;-72
2022/01/17 09:13:57;;;;;;;7.45;3.67;;;;;;;;;;5051721;28;20040;-73
2022/01/17 09:16:24;;;;;;;5.43;3.22;;;;;;;;;;5033996;28;20043;-73
2022/01/17 09:18:52;;;;;;;8.68;3.50;;;;;;;;;;5053412;28;20053;-73
2022/01/17 09:21:21;;;;;;;6.00;3.53;;;;;;;;;;5055289;28;20053;-73
2022/01/17 09:23:50;;;;;;;8.00;3.35;;;;;;;;;;5054584;28;20203;-73
2022/01/17 09:26:18;;;;;;;5.65;3.22;;;;;;;;;;5055362;28;20049;-73
2022/01/17 09:28:47;;;;;;;3.60;2.28;;;;;;;;;;5055186;28;20049;-73
2022/01/17 09:31:16;;;;;;;2.80;2.00;;;;;;;;;;5037074;28;20127;-73
2022/01/17 09:33:44;;;;;;;4.93;2.53;;;;;;;;;;5055335;28;20127;-73
2022/01/17 09:36:11;;;;;;;6.63;3.17;;;;;;;;;;5054737;28;20040;-74
2022/01/17 09:38:39;;;;;;;5.95;3.42;;;;;;;;;;5054941;28;20131;-73
2022/01/17 09:41:06;;;;;;;4.70;2.58;;;;;;;;;;5055384;28;20044;-73
2022/01/17 09:43:42;;;;;;;4.68;2.05;;;;;;;;;;5054935;28;20045;-73
2022/01/17 09:46:10;;;;;;;3.70;2.20;;;;;;;;;;5054656;28;20053;-73
2022/01/17 09:48:45;;;;;;;3.90;2.40;;;;;;;;;;5054700;28;20044;-74
2022/01/17 09:51:18;;;;;;;3.53;2.42;;;;;;;;;;5054671;28;20464;-73
2022/01/17 09:53:46;;;;;;;6.05;2.80;;;;;;;;;;5054972;28;20390;-73
2022/01/17 09:56:14;;;;;;;5.03;2.65;;;;;;;;;;5054539;28;20430;-73
2022/01/17 09:58:42;;;;;;;4.28;2.40;;;;;;;;;;5054652;28;20041;-73
2022/01/17 10:01:10;;;;;;;3.33;2.35;;;;;;;;;;5054872;28;20480;-74
2022/01/17 10:03:39;;;;;;;6.68;2.60;;;;;;;;;;5054494;28;20069;-72
2022/01/17 10:06:07;;;;;;;3.95;2.20;;;;;;;;;;5054324;28;20045;-73
2022/01/17 10:08:34;;;;;;;3.42;2.17;;;;;;;;;;5054421;28;20047;-73
2022/01/17 10:11:05;;;;;;;4.18;2.42;;;;;;;;;;5054036;28;20041;-73
2022/01/17 10:13:41;;;;;;;7.20;2.30;;;;;;;;;;5054609;28;20482;-75
2022/01/17 10:16:12;;;;;;;6.90;2.00;;;;;;;;;;5055330;28;20120;-73
2022/01/17 10:19:01;;;;;;;4.25;2.65;;;;;;;;;;4955123;29;20051;-73
2022/01/17 10:21:35;;;;;;;2.92;2.10;;;;;;;;;;4956544;29;20455;-74
2022/01/17 10:35:07;;;;;;;5.80;2.60;;;;;;;;;;4955688;29;20384;-74
2022/01/17 10:37:29;;;;;;;4.28;2.30;;;;;;;;;;4955085;29;20134;-73
2022/01/17 10:40:02;;;;;;;3.28;2.60;;;;;;;;;;4956386;29;20047;-73
2022/01/17 10:42:34;;;;;;;3.80;2.80;;;;;;;;;;4955796;29;20049;-73
2022/01/17 10:45:10;;;;;;;3.63;2.50;;;;;;;;;;4956055;29;20063;-73
2022/01/17 10:47:45;;;;;;;5.40;2.50;;;;;;;;;;4955927;29;20051;-74
2022/01/17 10:50:15;;;;;;;5.15;3.17;;;;;;;;;;4956158;29;20066;-73
2022/01/17 10:52:43;;;;;;;4.70;2.83;;;;;;;;;;4956048;29;20098;-74
2022/01/17 10:55:16;;;;;;;5.10;2.90;;;;;;;;;;4955638;29;20485;-75
2022/01/17 10:57:48;;;;;;;4.07;2.97;;;;;;;;;;4955842;29;20047;-74
2022/01/17 11:00:17;;;;;;;7.20;2.88;;;;;;;;;;4955129;29;20043;-73
2022/01/17 11:02:46;;;;;;;4.38;2.70;;;;;;;;;;4955622;29;20055;-73
2022/01/17 11:05:14;;;;;;;3.03;2.50;;;;;;;;;;4938835;29;20043;-73
2022/01/17 11:07:43;;;;;;;2.55;2.28;;;;;;;;;;4955932;29;20081;-73
2022/01/17 11:10:15;;;;;;;6.40;2.38;;;;;;;;;;4955701;29;20047;-73
2022/01/17 11:12:44;;;;;;;3.88;2.28;;;;;;;;;;4954944;29;20145;-73
2022/01/17 11:15:12;;;;;;;3.55;2.38;;;;;;;;;;4955453;29;20126;-74
2022/01/17 11:17:47;;;;;;;3.22;2.15;;;;;;;;;;4948924;28;20055;-73
2022/01/17 11:20:15;;;;;;;4.25;2.33;;;;;;;;;;4957338;28;20053;-73
2022/01/17 11:22:44;;;;;;;4.20;2.30;;;;;;;;;;4974606;28;20220;-73
2022/01/17 11:25:32;;;;;;;2.47;2.03;;;;;;;;;;4974644;28;20122;-74
2022/01/17 11:28:01;;;;;;;5.40;2.38;;;;;;;;;;4974700;28;20057;-74
2022/01/17 11:30:29;;;;;;;2.80;2.40;;;;;;;;;;4958031;28;20418;-73
2022/01/17 11:32:58;;;;;;;3.60;2.03;;;;;;;;;;4957078;28;20043;-73
2022/01/17 11:35:26;;;;;;;2.88;2.08;;;;;;;;;;4974304;28;20076;-73
2022/01/17 11:37:58;;;;;;;3.15;2.22;;;;;;;;;;4974345;28;20049;-73
2022/01/17 11:40:29;;;;;;;5.32;2.42;;;;;;;;;;4974308;28;20037;-73
2022/01/17 11:42:59;;;;;;;3.70;2.20;;;;;;;;;;4974649;28;20057;-73
2022/01/17 11:45:30;;;;;;;3.33;1.98;;;;;;;;;;4974159;28;20355;-73
2022/01/17 11:48:02;;;;;;;2.72;2.00;;;;;;;;;;4956952;28;20050;-73
2022/01/17 11:53:01;;;;;;;5.20;2.53;;;;;;;;;;4973918;28;19922;-74
2022/01/17 11:58:26;;;;;;;3.80;2.40;;;;;;;;;;4974132;28;20410;-73
2022/01/17 12:01:00;;;;;;;2.72;2.40;;;;;;;;;;4956951;28;20078;-74
2022/01/17 12:03:31;;;;;;;3.78;2.50;;;;;;;;;;4956822;28;20047;-74
2022/01/17 12:06:04;;;;;;;5.93;2.70;;;;;;;;;;4973976;28;20073;-73
2022/01/17 12:08:31;;;;;;;4.22;2.55;;;;;;;;;;4973798;28;20058;-73
2022/01/17 12:11:02;;;;;;;5.28;2.30;;;;;;;;;;4973219;28;20059;-73
2022/01/17 12:13:41;;;;;;;4.90;2.67;;;;;;;;;;4973856;28;20053;-73
2022/01/17 12:16:17;;;;;;;4.38;2.58;;;;;;;;;;4973804;28;20038;-73
2022/01/17 12:18:56;;;;;;;3.95;3.00;;;;;;;;;;4954117;29;20044;-73
2022/01/17 12:21:35;;;;;;;4.85;3.50;;;;;;;;;;4954475;29;20044;-73
2022/01/17 12:24:18;;;;;;;5.80;3.67;;;;;;;;;;4954227;29;20118;-73
2022/01/17 12:26:56;;;;;;;5.85;3.55;;;;;;;;;;4937841;29;20040;-72
2022/01/17 12:29:36;;;;;;;7.45;2.80;;;;;;;;;;4937049;29;20043;-73
2022/01/17 12:32:05;;;;;;;4.22;2.53;;;;;;;;;;4952827;29;20039;-73
2022/01/17 12:34:40;;;;;;;3.72;2.60;;;;;;;;;;4953930;29;20041;-72
2022/01/17 12:37:31;;;;;;;4.50;2.83;;;;;;;;;;4936457;29;20481;-73
2022/01/17 12:40:08;;;;;;;6.60;3.60;;;;;;;;;;4952823;29;20043;-72
2022/01/17 12:42:52;;;;;;;7.57;3.78;;;;;;;;;;4952118;29;20075;-74
2022/01/17 12:45:21;;;;;;;5.35;3.30;;;;;;;;;;4951937;29;20039;-73
2022/01/17 12:47:49;;;;;;;4.88;2.60;;;;;;;;;;4921263;29;20048;-73
2022/01/17 12:50:18;;;;;;;3.67;2.10;;;;;;;;;;4954409;29;20047;-72
2022/01/17 12:52:46;;;;;;;5.07;2.20;;;;;;;;;;4954056;28;20039;-73
2022/01/17 12:55:14;;;;;;;5.20;2.65;;;;;;;;;;4957820;29;20401;-73
2022/01/17 12:57:42;;;;;;;5.13;2.97;;;;;;;;;;4957767;29;20067;-73
2022/01/17 13:00:17;;;;;;;5.20;3.03;;;;;;;;;;4939274;29;20047;-73
2022/01/17 13:02:45;;;;;;;6.03;2.67;;;;;;;;;;4957167;29;20035;-73
2022/01/17 13:05:15;;;;;;;2.42;2.20;;;;;;;;;;4957070;29;20043;-74
2022/01/17 13:07:42;;;;;;;5.22;2.53;;;;;;;;;;4957238;29;20047;-73
2022/01/17 13:10:10;;;;;;;4.53;2.45;;;;;;;;;;4939569;29;20168;-73
2022/01/17 13:12:42;;;;;;;5.82;2.97;;;;;;;;;;4939739;29;20039;-72
2022/01/17 13:15:11;;;;;;;4.28;2.42;;;;;;;;;;4923984;29;20050;-72
2022/01/17 13:17:39;;;;;;;7.88;2.70;;;;;;;;;;4968880;28;20135;-71
2022/01/17 13:20:08;;;;;;;5.85;2.38;;;;;;;;;;4965274;28;20475;-71
2022/01/17 13:22:40;;;;;;;8.10;2.90;;;;;;;;;;4969098;28;20503;-71
2022/01/17 13:25:09;;;;;;;10.90;2.50;;;;;;;;;;4968061;28;20043;-71
2022/01/17 13:27:42;;;;;;;6.30;2.50;;;;;;;;;;4972929;28;20042;-71
2022/01/17 13:30:11;;;;;;;3.50;2.30;;;;;;;;;;4965781;28;20075;-71
2022/01/17 13:32:42;;;;;;;3.40;2.50;;;;;;;;;;4969306;28;20396;-71
2022/01/17 13:35:11;;;;;;;6.55;2.58;;;;;;;;;;4964359;28;20118;-72
2022/01/17 13:38:08;;;;;;;4.38;2.45;;;;;;;;;;4970811;28;20114;-71
2022/01/17 13:40:36;;;;;;;4.93;2.30;;;;;;;;;;4975373;28;20043;-72
2022/01/17 13:43:06;;;;;;;8.85;2.60;;;;;;;;;;4956322;28;20394;-71
2022/01/17 13:45:41;;;;;;;5.60;2.40;;;;;;;;;;4964129;28;20459;-72
2022/01/17 13:48:11;;;;;;;5.57;2.40;;;;;;;;;;4957196;28;20043;-72
2022/01/17 13:50:43;;;;;;;3.72;2.30;;;;;;;;;;4965448;28;20046;-70
2022/01/17 13:53:10;;;;;;;5.53;2.43;;;;;;;;;;4975441;28;20038;-72
2022/01/17 13:55:39;;;;;;;10.40;2.67;;;;;;;;;;4975571;28;20031;-71
2022/01/17 13:58:10;;;;;;;5.10;3.15;;;;;;;;;;4955676;28;20046;-72
2022/01/17 14:00:40;;;;;;;7.78;2.50;;;;;;;;;;4945310;28;20042;-73
2022/01/17 14:03:09;;;;;;;5.03;2.58;;;;;;;;;;4957138;28;20069;-72
2022/01/17 14:05:46;;;;;;;6.97;2.58;;;;;;;;;;4958384;28;20118;-73
2022/01/17 14:08:17;;;;;;;9.35;2.38;;;;;;;;;;4952065;28;20043;-72
2022/01/17 14:10:52;;;;;;;2.63;1.98;;;;;;;;;;4961266;28;21372;-71
2022/01/17 14:13:21;;;;;;;3.20;1.50;;;;;;;;;;4967830;28;20394;-73
2022/01/17 14:15:49;;;;;;;3.70;1.90;;;;;;;;;;4957679;28;20072;-72
2022/01/17 14:18:16;;;;;;;3.90;1.83;;;;;;;;;;4974731;28;20391;-71
2022/01/17 14:20:53;;;;;;;3.25;1.90;;;;;;;;;;4974671;28;20046;-72
2022/01/17 14:23:25;;;;;;;2.58;1.45;;;;;;;;;;4975107;28;20053;-71
2022/01/17 14:25:52;;;;;;;2.97;1.85;;;;;;;;;;4975023;28;20413;-70
2022/01/17 14:28:20;;;;;;;2.33;1.67;;;;;;;;;;4975160;28;20047;-71
2022/01/17 14:30:49;;;;;;;5.25;1.88;;;;;;;;;;4974867;28;20666;-71
2022/01/17 14:33:18;;;;;;;3.67;1.80;;;;;;;;;;4957316;28;20066;-72
2022/01/17 14:36:04;;;;;;;3.15;1.83;;;;;;;;;;4974174;28;20041;-71
2022/01/17 14:38:32;;;;;;;2.13;1.63;;;;;;;;;;4974173;28;20034;-71
2022/01/17 14:40:59;;;;;;;5.38;2.30;;;;;;;;;;4974906;28;20043;-72
2022/01/17 14:43:32;;;;;;;4.32;1.80;;;;;;;;;;4957040;28;20050;-73
2022/01/17 14:46:07;;;;;;;3.50;1.90;;;;;;;;;;4953488;29;20055;-72
2022/01/17 14:48:36;;;;;;;5.47;1.90;;;;;;;;;;4972722;28;20125;-71
2022/01/17 14:51:10;;;;;;;3.50;1.90;;;;;;;;;;4974202;28;20042;-72
2022/01/17 14:53:38;;;;;;;4.32;1.98;;;;;;;;;;4975770;28;20045;-71
2022/01/17 15:04:23;;;;;;;6.63;2.17;;;;;;;;;;4973332;28;20467;-72
2022/01/17 15:06:51;;;;;;;7.38;2.78;;;;;;;;;;4981517;28;20053;-71
2022/01/17 15:09:21;;;;;;;6.78;2.33;;;;;;;;;;4974491;28;20039;-70
2022/01/17 15:12:09;;;;;;;4.22;2.00;;;;;;;;;;4973766;28;20439;-71
2022/01/17 15:14:39;;;;;;;3.25;2.10;;;;;;;;;;4973711;28;20454;-71
2022/01/17 15:17:08;;;;;;;4.97;1.88;;;;;;;;;;4973814;28;20057;-71
2022/01/17 15:19:35;;;;;;;5.20;2.13;;;;;;;;;;4973124;28;20063;-71
2022/01/17 15:22:03;;;;;;;6.13;2.08;;;;;;;;;;4940444;28;20038;-71
2022/01/17 15:24:32;;;;;;;4.43;2.10;;;;;;;;;;4973783;28;20070;-70
2022/01/17 15:27:00;;;;;;;2.00;1.90;;;;;;;;;;4974115;28;20047;-71
2022/01/17 15:29:33;;;;;;;7.40;1.85;;;;;;;;;;4973830;28;20458;-72
2022/01/17 15:32:02;;;;;;;6.78;2.15;;;;;;;;;;4974211;28;20410;-72
2022/01/17 15:34:30;;;;;;;2.83;2.03;;;;;;;;;;4973790;28;20062;-72
2022/01/17 15:36:58;;;;;;;4.72;2.17;;;;;;;;;;4973656;28;20034;-73
2022/01/17 15:39:25;;;;;;;8.90;2.03;;;;;;;;;;4956317;28;20042;-72